sensor_id;sensor_type;location;lat;lon;timestamp;P1;durP1;ratioP1;P2;durP2;ratioP2
73168;SDS011;61379;59.732;30.468;2022-08-05T00:00:06;6.85;;;6.15;;
73168;SDS011;61379;59.732;30.468;2022-08-05T00:02:34;10.50;;;6.20;;
73168;SDS011;61379;59.732;30.468;2022-08-05T00:05:01;6.88;;;6.07;;
73168;SDS011;61379;59.732;30.468;2022-08-05T00:07:28;7.80;;;5.57;;
73168;SDS011;61379;59.732;30.468;2022-08-05T00:09:55;7.82;;;6.35;;
73168;SDS011;61379;59.732;30.468;2022-08-05T00:12:22;9.60;;;7.00;;
73168;SDS011;61379;59.732;30.468;2022-08-05T00:14:51;7.55;;;6.03;;
73168;SDS011;61379;59.732;30.468;2022-08-05T00:17:18;9.27;;;6.50;;
73168;SDS011;61379;59.732;30.468;2022-08-05T00:19:45;11.10;;;6.43;;
73168;SDS011;61379;59.732;30.468;2022-08-05T00:22:12;7.28;;;5.50;;
73168;SDS011;61379;59.732;30.468;2022-08-05T00:24:39;7.63;;;6.32;;
73168;SDS011;61379;59.732;30.468;2022-08-05T00:27:06;9.35;;;6.40;;
73168;SDS011;61379;59.732;30.468;2022-08-05T00:29:33;8.98;;;5.93;;
73168;SDS011;61379;59.732;30.468;2022-08-05T00:32:02;7.82;;;6.20;;
73168;SDS011;61379;59.732;30.468;2022-08-05T00:34:30;10.30;;;6.18;;
73168;SDS011;61379;59.732;30.468;2022-08-05T00:36:57;9.02;;;6.80;;
73168;SDS011;61379;59.732;30.468;2022-08-05T00:39:24;8.50;;;6.53;;
73168;SDS011;61379;59.732;30.468;2022-08-05T00:41:51;9.32;;;6.65;;
73168;SDS011;61379;59.732;30.468;2022-08-05T00:44:18;9.00;;;6.13;;
73168;SDS011;61379;59.732;30.468;2022-08-05T00:46:45;7.70;;;6.22;;
73168;SDS011;61379;59.732;30.468;2022-08-05T00:49:13;8.27;;;6.35;;
73168;SDS011;61379;59.732;30.468;2022-08-05T00:51:43;9.23;;;6.28;;
73168;SDS011;61379;59.732;30.468;2022-08-05T00:54:10;6.75;;;5.97;;
73168;SDS011;61379;59.732;30.468;2022-08-05T00:56:37;10.13;;;6.55;;
73168;SDS011;61379;59.732;30.468;2022-08-05T00:59:04;7.03;;;6.25;;
73168;SDS011;61379;59.732;30.468;2022-08-05T01:01:31;7.10;;;5.60;;
73168;SDS011;61379;59.732;30.468;2022-08-05T01:03:58;6.38;;;5.75;;
73168;SDS011;61379;59.732;30.468;2022-08-05T01:06:26;8.23;;;5.75;;
73168;SDS011;61379;59.732;30.468;2022-08-05T01:08:52;8.98;;;6.20;;
73168;SDS011;61379;59.732;30.468;2022-08-05T01:11:20;8.10;;;6.03;;
73168;SDS011;61379;59.732;30.468;2022-08-05T01:13:50;6.95;;;5.53;;
73168;SDS011;61379;59.732;30.468;2022-08-05T01:16:20;6.20;;;5.43;;
73168;SDS011;61379;59.732;30.468;2022-08-05T01:18:51;7.53;;;5.40;;
73168;SDS011;61379;59.732;30.468;2022-08-05T01:21:26;6.22;;;5.30;;
73168;SDS011;61379;59.732;30.468;2022-08-05T01:24:03;8.52;;;5.53;;
73168;SDS011;61379;59.732;30.468;2022-08-05T01:26:35;7.97;;;5.95;;
73168;SDS011;61379;59.732;30.468;2022-08-05T01:29:09;6.97;;;5.50;;
73168;SDS011;61379;59.732;30.468;2022-08-05T01:31:38;6.03;;;5.18;;
73168;SDS011;61379;59.732;30.468;2022-08-05T01:34:07;9.50;;;5.28;;
73168;SDS011;61379;59.732;30.468;2022-08-05T01:36:37;10.57;;;6.03;;
73168;SDS011;61379;59.732;30.468;2022-08-05T01:39:06;5.95;;;5.35;;
73168;SDS011;61379;59.732;30.468;2022-08-05T01:41:33;7.07;;;5.65;;
73168;SDS011;61379;59.732;30.468;2022-08-05T01:44:00;7.13;;;5.75;;
73168;SDS011;61379;59.732;30.468;2022-08-05T01:46:29;7.05;;;5.53;;
73168;SDS011;61379;59.732;30.468;2022-08-05T01:48:57;7.40;;;5.75;;
73168;SDS011;61379;59.732;30.468;2022-08-05T01:51:24;6.10;;;5.30;;
73168;SDS011;61379;59.732;30.468;2022-08-05T01:53:51;6.60;;;4.78;;
73168;SDS011;61379;59.732;30.468;2022-08-05T01:56:19;9.18;;;5.47;;
73168;SDS011;61379;59.732;30.468;2022-08-05T01:58:46;6.80;;;4.97;;
73168;SDS011;61379;59.732;30.468;2022-08-05T02:01:15;6.68;;;5.35;;
73168;SDS011;61379;59.732;30.468;2022-08-05T02:03:45;6.25;;;5.13;;
73168;SDS011;61379;59.732;30.468;2022-08-05T02:06:13;6.05;;;5.45;;
73168;SDS011;61379;59.732;30.468;2022-08-05T02:08:40;6.82;;;6.00;;
73168;SDS011;61379;59.732;30.468;2022-08-05T02:11:07;6.97;;;6.28;;
73168;SDS011;61379;59.732;30.468;2022-08-05T02:13:55;7.05;;;5.75;;
73168;SDS011;61379;59.732;30.468;2022-08-05T02:16:26;6.20;;;5.40;;
73168;SDS011;61379;59.732;30.468;2022-08-05T02:18:55;6.85;;;4.97;;
73168;SDS011;61379;59.732;30.468;2022-08-05T02:21:25;6.45;;;5.75;;
73168;SDS011;61379;59.732;30.468;2022-08-05T02:23:54;7.57;;;5.22;;
73168;SDS011;61379;59.732;30.468;2022-08-05T02:26:34;6.38;;;5.78;;
73168;SDS011;61379;59.732;30.468;2022-08-05T02:29:01;7.55;;;6.78;;
73168;SDS011;61379;59.732;30.468;2022-08-05T02:31:29;8.77;;;5.18;;
73168;SDS011;61379;59.732;30.468;2022-08-05T02:34:00;8.38;;;5.93;;
73168;SDS011;61379;59.732;30.468;2022-08-05T02:36:28;10.70;;;5.28;;
73168;SDS011;61379;59.732;30.468;2022-08-05T02:38:55;7.65;;;5.47;;
73168;SDS011;61379;59.732;30.468;2022-08-05T02:41:23;8.45;;;5.78;;
73168;SDS011;61379;59.732;30.468;2022-08-05T02:43:50;7.25;;;5.20;;
73168;SDS011;61379;59.732;30.468;2022-08-05T02:46:18;8.20;;;5.78;;
73168;SDS011;61379;59.732;30.468;2022-08-05T02:48:45;6.85;;;6.15;;
73168;SDS011;61379;59.732;30.468;2022-08-05T02:51:14;7.35;;;6.65;;
73168;SDS011;61379;59.732;30.468;2022-08-05T02:53:42;7.85;;;6.80;;
73168;SDS011;61379;59.732;30.468;2022-08-05T02:56:10;7.78;;;5.88;;
73168;SDS011;61379;59.732;30.468;2022-08-05T02:58:37;6.13;;;5.53;;
73168;SDS011;61379;59.732;30.468;2022-08-05T03:01:05;8.63;;;5.97;;
73168;SDS011;61379;59.732;30.468;2022-08-05T03:03:33;8.13;;;4.97;;
73168;SDS011;61379;59.732;30.468;2022-08-05T03:06:00;6.60;;;4.93;;
73168;SDS011;61379;59.732;30.468;2022-08-05T03:08:28;6.25;;;5.65;;
73168;SDS011;61379;59.732;30.468;2022-08-05T03:10:55;6.00;;;4.95;;
73168;SDS011;61379;59.732;30.468;2022-08-05T03:13:22;6.55;;;5.45;;
73168;SDS011;61379;59.732;30.468;2022-08-05T03:15:49;5.88;;;4.90;;
73168;SDS011;61379;59.732;30.468;2022-08-05T03:18:16;5.88;;;5.38;;
73168;SDS011;61379;59.732;30.468;2022-08-05T03:20:42;7.13;;;5.70;;
73168;SDS011;61379;59.732;30.468;2022-08-05T03:23:09;7.88;;;5.47;;
73168;SDS011;61379;59.732;30.468;2022-08-05T03:25:38;6.10;;;5.50;;
73168;SDS011;61379;59.732;30.468;2022-08-05T03:28:05;6.57;;;5.30;;
73168;SDS011;61379;59.732;30.468;2022-08-05T03:30:33;5.47;;;4.97;;
73168;SDS011;61379;59.732;30.468;2022-08-05T03:33:00;6.60;;;5.43;;
73168;SDS011;61379;59.732;30.468;2022-08-05T03:35:27;7.25;;;6.63;;
73168;SDS011;61379;59.732;30.468;2022-08-05T03:37:55;9.48;;;5.38;;
73168;SDS011;61379;59.732;30.468;2022-08-05T03:40:22;7.00;;;5.40;;
73168;SDS011;61379;59.732;30.468;2022-08-05T03:42:50;6.80;;;6.05;;
73168;SDS011;61379;59.732;30.468;2022-08-05T03:45:17;7.00;;;6.38;;
73168;SDS011;61379;59.732;30.468;2022-08-05T03:47:44;7.60;;;7.00;;
73168;SDS011;61379;59.732;30.468;2022-08-05T03:50:10;11.77;;;6.68;;
73168;SDS011;61379;59.732;30.468;2022-08-05T03:52:40;9.20;;;5.90;;
73168;SDS011;61379;59.732;30.468;2022-08-05T03:55:09;7.38;;;6.68;;
73168;SDS011;61379;59.732;30.468;2022-08-05T03:57:36;7.57;;;6.97;;
73168;SDS011;61379;59.732;30.468;2022-08-05T04:00:06;7.75;;;7.05;;
73168;SDS011;61379;59.732;30.468;2022-08-05T04:02:33;10.00;;;6.38;;
73168;SDS011;61379;59.732;30.468;2022-08-05T04:05:01;9.60;;;7.00;;
73168;SDS011;61379;59.732;30.468;2022-08-05T04:07:29;13.73;;;7.03;;
73168;SDS011;61379;59.732;30.468;2022-08-05T04:09:56;8.07;;;7.28;;
73168;SDS011;61379;59.732;30.468;2022-08-05T04:12:23;7.18;;;6.57;;
73168;SDS011;61379;59.732;30.468;2022-08-05T04:14:50;8.05;;;6.93;;
73168;SDS011;61379;59.732;30.468;2022-08-05T04:17:18;7.57;;;6.80;;
73168;SDS011;61379;59.732;30.468;2022-08-05T04:19:46;8.07;;;7.28;;
73168;SDS011;61379;59.732;30.468;2022-08-05T04:22:13;8.27;;;6.47;;
73168;SDS011;61379;59.732;30.468;2022-08-05T04:24:40;7.28;;;6.57;;
73168;SDS011;61379;59.732;30.468;2022-08-05T04:27:07;7.05;;;6.45;;
73168;SDS011;61379;59.732;30.468;2022-08-05T04:29:34;7.10;;;6.50;;
73168;SDS011;61379;59.732;30.468;2022-08-05T04:32:01;6.97;;;6.38;;
73168;SDS011;61379;59.732;30.468;2022-08-05T04:34:29;7.85;;;7.15;;
73168;SDS011;61379;59.732;30.468;2022-08-05T04:36:56;7.38;;;6.35;;
73168;SDS011;61379;59.732;30.468;2022-08-05T04:39:22;8.30;;;6.68;;
73168;SDS011;61379;59.732;30.468;2022-08-05T04:41:50;6.88;;;6.28;;
73168;SDS011;61379;59.732;30.468;2022-08-05T04:44:17;9.02;;;7.00;;
73168;SDS011;61379;59.732;30.468;2022-08-05T04:46:43;6.35;;;5.85;;
73168;SDS011;61379;59.732;30.468;2022-08-05T04:49:10;6.28;;;5.45;;
73168;SDS011;61379;59.732;30.468;2022-08-05T04:51:38;6.15;;;5.65;;
73168;SDS011;61379;59.732;30.468;2022-08-05T04:54:05;6.57;;;5.97;;
73168;SDS011;61379;59.732;30.468;2022-08-05T04:56:31;6.05;;;5.53;;
73168;SDS011;61379;59.732;30.468;2022-08-05T04:58:58;6.38;;;5.82;;
73168;SDS011;61379;59.732;30.468;2022-08-05T05:01:25;5.90;;;5.25;;
73168;SDS011;61379;59.732;30.468;2022-08-05T05:03:52;6.85;;;6.25;;
73168;SDS011;61379;59.732;30.468;2022-08-05T05:06:18;6.22;;;5.20;;
73168;SDS011;61379;59.732;30.468;2022-08-05T05:08:46;6.80;;;6.10;;
73168;SDS011;61379;59.732;30.468;2022-08-05T05:11:13;6.93;;;6.32;;
73168;SDS011;61379;59.732;30.468;2022-08-05T05:13:40;6.82;;;5.30;;
73168;SDS011;61379;59.732;30.468;2022-08-05T05:16:07;5.88;;;5.30;;
73168;SDS011;61379;59.732;30.468;2022-08-05T05:18:33;5.80;;;5.30;;
73168;SDS011;61379;59.732;30.468;2022-08-05T05:21:00;5.20;;;4.75;;
73168;SDS011;61379;59.732;30.468;2022-08-05T05:23:27;5.93;;;5.43;;
73168;SDS011;61379;59.732;30.468;2022-08-05T05:25:55;8.02;;;6.28;;
73168;SDS011;61379;59.732;30.468;2022-08-05T05:28:22;6.47;;;5.88;;
73168;SDS011;61379;59.732;30.468;2022-08-05T05:30:48;7.63;;;6.28;;
73168;SDS011;61379;59.732;30.468;2022-08-05T05:33:15;6.47;;;5.53;;
73168;SDS011;61379;59.732;30.468;2022-08-05T05:35:42;6.70;;;5.47;;
73168;SDS011;61379;59.732;30.468;2022-08-05T05:38:09;7.07;;;6.45;;
73168;SDS011;61379;59.732;30.468;2022-08-05T05:40:35;5.88;;;5.38;;
73168;SDS011;61379;59.732;30.468;2022-08-05T05:43:04;7.82;;;5.40;;
73168;SDS011;61379;59.732;30.468;2022-08-05T05:45:30;7.40;;;6.72;;
73168;SDS011;61379;59.732;30.468;2022-08-05T05:47:57;6.35;;;5.40;;
73168;SDS011;61379;59.732;30.468;2022-08-05T05:50:24;6.93;;;6.18;;
73168;SDS011;61379;59.732;30.468;2022-08-05T05:52:50;7.18;;;6.57;;
73168;SDS011;61379;59.732;30.468;2022-08-05T05:55:18;5.55;;;5.05;;
73168;SDS011;61379;59.732;30.468;2022-08-05T05:57:45;7.22;;;6.72;;
73168;SDS011;61379;59.732;30.468;2022-08-05T06:00:15;6.22;;;5.72;;
73168;SDS011;61379;59.732;30.468;2022-08-05T06:02:42;5.80;;;5.30;;
73168;SDS011;61379;59.732;30.468;2022-08-05T06:05:09;8.48;;;6.30;;
73168;SDS011;61379;59.732;30.468;2022-08-05T06:07:36;6.85;;;6.25;;
73168;SDS011;61379;59.732;30.468;2022-08-05T06:10:03;5.82;;;4.78;;
73168;SDS011;61379;59.732;30.468;2022-08-05T06:12:30;5.78;;;5.28;;
73168;SDS011;61379;59.732;30.468;2022-08-05T06:14:59;10.05;;;5.75;;
73168;SDS011;61379;59.732;30.468;2022-08-05T06:17:27;6.78;;;5.72;;
73168;SDS011;61379;59.732;30.468;2022-08-05T06:19:53;6.72;;;6.13;;
73168;SDS011;61379;59.732;30.468;2022-08-05T06:22:24;7.07;;;6.47;;
73168;SDS011;61379;59.732;30.468;2022-08-05T06:24:51;6.40;;;5.10;;
73168;SDS011;61379;59.732;30.468;2022-08-05T06:27:18;7.90;;;5.40;;
73168;SDS011;61379;59.732;30.468;2022-08-05T06:29:44;5.50;;;5.00;;
73168;SDS011;61379;59.732;30.468;2022-08-05T06:32:11;6.10;;;5.50;;
73168;SDS011;61379;59.732;30.468;2022-08-05T06:34:39;6.10;;;5.60;;
73168;SDS011;61379;59.732;30.468;2022-08-05T06:37:06;6.53;;;6.13;;
73168;SDS011;61379;59.732;30.468;2022-08-05T06:39:33;5.47;;;4.97;;
73168;SDS011;61379;59.732;30.468;2022-08-05T06:42:00;5.22;;;4.82;;
73168;SDS011;61379;59.732;30.468;2022-08-05T06:44:27;6.63;;;6.03;;
73168;SDS011;61379;59.732;30.468;2022-08-05T06:46:54;5.78;;;5.18;;
73168;SDS011;61379;59.732;30.468;2022-08-05T06:49:21;7.35;;;5.85;;
73168;SDS011;61379;59.732;30.468;2022-08-05T06:51:50;6.35;;;4.95;;
73168;SDS011;61379;59.732;30.468;2022-08-05T06:54:17;8.75;;;6.13;;
73168;SDS011;61379;59.732;30.468;2022-08-05T06:56:44;10.05;;;6.78;;
73168;SDS011;61379;59.732;30.468;2022-08-05T06:59:11;9.30;;;6.03;;
73168;SDS011;61379;59.732;30.468;2022-08-05T07:01:38;15.98;;;7.78;;
73168;SDS011;61379;59.732;30.468;2022-08-05T07:04:05;17.15;;;7.85;;
73168;SDS011;61379;59.732;30.468;2022-08-05T07:06:32;14.32;;;7.18;;
73168;SDS011;61379;59.732;30.468;2022-08-05T07:09:01;8.13;;;6.55;;
73168;SDS011;61379;59.732;30.468;2022-08-05T07:11:28;6.82;;;5.35;;
73168;SDS011;61379;59.732;30.468;2022-08-05T07:13:55;9.88;;;6.53;;
73168;SDS011;61379;59.732;30.468;2022-08-05T07:16:40;11.50;;;7.40;;
73168;SDS011;61379;59.732;30.468;2022-08-05T07:19:16;6.82;;;5.35;;
73168;SDS011;61379;59.732;30.468;2022-08-05T07:21:43;8.02;;;6.28;;
73168;SDS011;61379;59.732;30.468;2022-08-05T07:24:12;6.65;;;5.85;;
73168;SDS011;61379;59.732;30.468;2022-08-05T07:26:39;6.07;;;5.25;;
73168;SDS011;61379;59.732;30.468;2022-08-05T07:29:06;6.75;;;6.15;;
73168;SDS011;61379;59.732;30.468;2022-08-05T07:31:34;6.18;;;5.53;;
73168;SDS011;61379;59.732;30.468;2022-08-05T07:34:01;5.95;;;5.45;;
73168;SDS011;61379;59.732;30.468;2022-08-05T07:36:28;5.97;;;5.50;;
73168;SDS011;61379;59.732;30.468;2022-08-05T07:38:57;5.47;;;4.97;;
73168;SDS011;61379;59.732;30.468;2022-08-05T07:41:26;6.38;;;5.82;;
73168;SDS011;61379;59.732;30.468;2022-08-05T07:43:53;6.45;;;5.85;;
73168;SDS011;61379;59.732;30.468;2022-08-05T07:46:20;5.10;;;4.70;;
73168;SDS011;61379;59.732;30.468;2022-08-05T07:48:47;6.28;;;5.68;;
73168;SDS011;61379;59.732;30.468;2022-08-05T07:51:14;6.25;;;5.85;;
73168;SDS011;61379;59.732;30.468;2022-08-05T07:53:41;6.60;;;5.97;;
73168;SDS011;61379;59.732;30.468;2022-08-05T07:56:08;7.00;;;5.43;;
73168;SDS011;61379;59.732;30.468;2022-08-05T07:58:37;6.18;;;5.68;;
73168;SDS011;61379;59.732;30.468;2022-08-05T08:01:04;6.72;;;6.13;;
73168;SDS011;61379;59.732;30.468;2022-08-05T08:03:31;6.35;;;5.75;;
73168;SDS011;61379;59.732;30.468;2022-08-05T08:05:58;7.28;;;6.00;;
73168;SDS011;61379;59.732;30.468;2022-08-05T08:08:26;5.65;;;5.20;;
73168;SDS011;61379;59.732;30.468;2022-08-05T08:10:53;6.40;;;5.80;;
73168;SDS011;61379;59.732;30.468;2022-08-05T08:13:21;5.97;;;5.47;;
73168;SDS011;61379;59.732;30.468;2022-08-05T08:15:49;5.82;;;5.28;;
73168;SDS011;61379;59.732;30.468;2022-08-05T08:18:16;6.05;;;5.65;;
73168;SDS011;61379;59.732;30.468;2022-08-05T08:20:43;5.97;;;5.40;;
73168;SDS011;61379;59.732;30.468;2022-08-05T08:23:10;6.40;;;5.85;;
73168;SDS011;61379;59.732;30.468;2022-08-05T08:25:37;6.15;;;5.65;;
73168;SDS011;61379;59.732;30.468;2022-08-05T08:28:04;7.07;;;6.57;;
73168;SDS011;61379;59.732;30.468;2022-08-05T08:30:31;6.22;;;5.80;;
73168;SDS011;61379;59.732;30.468;2022-08-05T08:33:00;6.63;;;6.13;;
73168;SDS011;61379;59.732;30.468;2022-08-05T08:35:27;6.55;;;5.95;;
73168;SDS011;61379;59.732;30.468;2022-08-05T08:37:54;6.65;;;5.80;;
73168;SDS011;61379;59.732;30.468;2022-08-05T08:40:21;6.65;;;6.15;;
73168;SDS011;61379;59.732;30.468;2022-08-05T08:42:48;6.47;;;5.88;;
73168;SDS011;61379;59.732;30.468;2022-08-05T08:47:43;6.97;;;6.47;;
73168;SDS011;61379;59.732;30.468;2022-08-05T08:50:13;7.40;;;6.90;;
73168;SDS011;61379;59.732;30.468;2022-08-05T08:52:40;6.20;;;5.70;;
73168;SDS011;61379;59.732;30.468;2022-08-05T08:55:10;6.80;;;6.40;;
73168;SDS011;61379;59.732;30.468;2022-08-05T08:57:37;6.60;;;6.00;;
73168;SDS011;61379;59.732;30.468;2022-08-05T09:00:04;6.80;;;6.30;;
73168;SDS011;61379;59.732;30.468;2022-08-05T09:02:33;6.50;;;6.00;;
73168;SDS011;61379;59.732;30.468;2022-08-05T09:05:00;6.47;;;5.97;;
73168;SDS011;61379;59.732;30.468;2022-08-05T09:07:29;5.78;;;5.28;;
73168;SDS011;61379;59.732;30.468;2022-08-05T09:09:56;6.03;;;5.53;;
73168;SDS011;61379;59.732;30.468;2022-08-05T09:12:23;5.90;;;5.40;;
73168;SDS011;61379;59.732;30.468;2022-08-05T09:14:50;6.50;;;6.00;;
73168;SDS011;61379;59.732;30.468;2022-08-05T09:17:17;6.72;;;6.18;;
73168;SDS011;61379;59.732;30.468;2022-08-05T09:19:44;6.15;;;5.75;;
73168;SDS011;61379;59.732;30.468;2022-08-05T09:22:11;7.82;;;7.22;;
73168;SDS011;61379;59.732;30.468;2022-08-05T09:24:40;6.82;;;6.32;;
73168;SDS011;61379;59.732;30.468;2022-08-05T09:27:09;6.63;;;6.13;;
73168;SDS011;61379;59.732;30.468;2022-08-05T09:29:37;6.82;;;6.43;;
73168;SDS011;61379;59.732;30.468;2022-08-05T09:32:06;6.88;;;6.35;;
73168;SDS011;61379;59.732;30.468;2022-08-05T09:34:46;6.55;;;6.15;;
73168;SDS011;61379;59.732;30.468;2022-08-05T09:37:16;6.88;;;6.38;;
73168;SDS011;61379;59.732;30.468;2022-08-05T09:39:45;7.18;;;6.68;;
73168;SDS011;61379;59.732;30.468;2022-08-05T09:42:12;6.90;;;6.40;;
73168;SDS011;61379;59.732;30.468;2022-08-05T09:44:41;7.35;;;6.85;;
73168;SDS011;61379;59.732;30.468;2022-08-05T09:47:10;7.20;;;6.22;;
73168;SDS011;61379;59.732;30.468;2022-08-05T09:49:41;7.57;;;6.88;;
73168;SDS011;61379;59.732;30.468;2022-08-05T09:52:23;7.28;;;6.75;;
73168;SDS011;61379;59.732;30.468;2022-08-05T09:54:56;6.85;;;6.30;;
73168;SDS011;61379;59.732;30.468;2022-08-05T09:57:31;7.22;;;6.63;;
73168;SDS011;61379;59.732;30.468;2022-08-05T09:59:59;8.02;;;7.43;;
73168;SDS011;61379;59.732;30.468;2022-08-05T10:02:29;6.88;;;6.38;;
73168;SDS011;61379;59.732;30.468;2022-08-05T10:05:01;7.53;;;7.03;;
73168;SDS011;61379;59.732;30.468;2022-08-05T10:07:41;7.13;;;6.53;;
73168;SDS011;61379;59.732;30.468;2022-08-05T10:10:09;7.15;;;6.47;;
73168;SDS011;61379;59.732;30.468;2022-08-05T10:15:13;7.82;;;7.32;;
73168;SDS011;61379;59.732;30.468;2022-08-05T10:17:40;7.90;;;7.38;;
73168;SDS011;61379;59.732;30.468;2022-08-05T10:20:08;8.50;;;7.80;;
73168;SDS011;61379;59.732;30.468;2022-08-05T10:22:37;7.45;;;6.85;;
73168;SDS011;61379;59.732;30.468;2022-08-05T10:27:32;7.50;;;6.95;;
73168;SDS011;61379;59.732;30.468;2022-08-05T10:30:00;7.47;;;6.97;;
73168;SDS011;61379;59.732;30.468;2022-08-05T10:32:29;7.38;;;6.88;;
73168;SDS011;61379;59.732;30.468;2022-08-05T10:34:57;6.97;;;6.45;;
73168;SDS011;61379;59.732;30.468;2022-08-05T10:37:24;7.82;;;7.22;;
73168;SDS011;61379;59.732;30.468;2022-08-05T10:39:54;7.82;;;7.32;;
73168;SDS011;61379;59.732;30.468;2022-08-05T10:42:22;7.63;;;7.03;;
73168;SDS011;61379;59.732;30.468;2022-08-05T10:44:53;6.97;;;6.47;;
73168;SDS011;61379;59.732;30.468;2022-08-05T10:47:24;7.60;;;6.97;;
73168;SDS011;61379;59.732;30.468;2022-08-05T10:49:59;7.95;;;7.35;;
73168;SDS011;61379;59.732;30.468;2022-08-05T10:52:38;10.52;;;8.30;;
73168;SDS011;61379;59.732;30.468;2022-08-05T10:55:07;8.60;;;7.90;;
73168;SDS011;61379;59.732;30.468;2022-08-05T10:57:36;7.10;;;6.40;;
73168;SDS011;61379;59.732;30.468;2022-08-05T11:00:08;6.93;;;6.43;;
73168;SDS011;61379;59.732;30.468;2022-08-05T11:02:35;6.90;;;6.50;;
73168;SDS011;61379;59.732;30.468;2022-08-05T11:05:03;7.45;;;6.95;;
73168;SDS011;61379;59.732;30.468;2022-08-05T11:07:31;6.97;;;6.47;;
73168;SDS011;61379;59.732;30.468;2022-08-05T11:09:59;6.90;;;6.40;;
73168;SDS011;61379;59.732;30.468;2022-08-05T11:15:18;6.65;;;6.03;;
73168;SDS011;61379;59.732;30.468;2022-08-05T11:17:46;6.38;;;5.97;;
73168;SDS011;61379;59.732;30.468;2022-08-05T11:20:33;6.18;;;5.78;;
73168;SDS011;61379;59.732;30.468;2022-08-05T11:25:43;7.10;;;6.40;;
73168;SDS011;61379;59.732;30.468;2022-08-05T11:28:42;6.47;;;6.07;;
73168;SDS011;61379;59.732;30.468;2022-08-05T11:31:26;6.53;;;6.13;;
73168;SDS011;61379;59.732;30.468;2022-08-05T11:34:02;7.45;;;6.95;;
73168;SDS011;61379;59.732;30.468;2022-08-05T11:36:38;7.20;;;6.70;;
73168;SDS011;61379;59.732;30.468;2022-08-05T11:39:06;7.10;;;6.60;;
73168;SDS011;61379;59.732;30.468;2022-08-05T11:41:33;7.40;;;6.93;;
73168;SDS011;61379;59.732;30.468;2022-08-05T11:44:01;7.13;;;6.63;;
73168;SDS011;61379;59.732;30.468;2022-08-05T11:46:31;7.53;;;7.03;;
73168;SDS011;61379;59.732;30.468;2022-08-05T11:48:58;7.47;;;7.00;;
73168;SDS011;61379;59.732;30.468;2022-08-05T11:51:26;7.68;;;7.18;;
73168;SDS011;61379;59.732;30.468;2022-08-05T11:53:54;7.93;;;7.43;;
73168;SDS011;61379;59.732;30.468;2022-08-05T11:56:21;7.70;;;7.20;;
73168;SDS011;61379;59.732;30.468;2022-08-05T11:58:48;7.85;;;7.35;;
73168;SDS011;61379;59.732;30.468;2022-08-05T12:01:17;7.32;;;6.82;;
73168;SDS011;61379;59.732;30.468;2022-08-05T12:03:46;8.52;;;7.93;;
73168;SDS011;61379;59.732;30.468;2022-08-05T12:06:14;8.20;;;7.50;;
73168;SDS011;61379;59.732;30.468;2022-08-05T12:08:42;7.78;;;7.28;;
73168;SDS011;61379;59.732;30.468;2022-08-05T12:11:09;7.70;;;7.20;;
73168;SDS011;61379;59.732;30.468;2022-08-05T12:13:37;7.32;;;6.82;;
73168;SDS011;61379;59.732;30.468;2022-08-05T12:16:07;7.72;;;7.13;;
73168;SDS011;61379;59.732;30.468;2022-08-05T12:18:34;7.75;;;7.20;;
73168;SDS011;61379;59.732;30.468;2022-08-05T12:21:09;6.80;;;6.20;;
73168;SDS011;61379;59.732;30.468;2022-08-05T12:23:36;8.23;;;7.63;;
73168;SDS011;61379;59.732;30.468;2022-08-05T12:26:03;7.25;;;6.75;;
73168;SDS011;61379;59.732;30.468;2022-08-05T12:28:32;7.53;;;7.03;;
73168;SDS011;61379;59.732;30.468;2022-08-05T12:30:59;7.63;;;7.13;;
73168;SDS011;61379;59.732;30.468;2022-08-05T12:33:27;7.63;;;7.13;;
73168;SDS011;61379;59.732;30.468;2022-08-05T12:35:54;7.03;;;6.53;;
73168;SDS011;61379;59.732;30.468;2022-08-05T12:38:23;7.22;;;6.63;;
73168;SDS011;61379;59.732;30.468;2022-08-05T12:40:50;7.70;;;7.20;;
73168;SDS011;61379;59.732;30.468;2022-08-05T12:43:18;8.10;;;7.43;;
73168;SDS011;61379;59.732;30.468;2022-08-05T12:45:51;7.18;;;6.50;;
73168;SDS011;61379;59.732;30.468;2022-08-05T12:48:18;7.65;;;7.15;;
73168;SDS011;61379;59.732;30.468;2022-08-05T12:53:29;7.32;;;6.68;;
73168;SDS011;61379;59.732;30.468;2022-08-05T12:55:56;7.45;;;6.85;;
73168;SDS011;61379;59.732;30.468;2022-08-05T12:58:23;7.30;;;6.78;;
73168;SDS011;61379;59.732;30.468;2022-08-05T13:00:50;8.75;;;8.15;;
73168;SDS011;61379;59.732;30.468;2022-08-05T13:03:17;7.85;;;7.35;;
73168;SDS011;61379;59.732;30.468;2022-08-05T13:05:45;7.97;;;7.38;;
73168;SDS011;61379;59.732;30.468;2022-08-05T13:10:42;7.60;;;7.10;;
73168;SDS011;61379;59.732;30.468;2022-08-05T13:13:10;7.10;;;6.63;;
73168;SDS011;61379;59.732;30.468;2022-08-05T13:15:39;6.60;;;6.10;;
73168;SDS011;61379;59.732;30.468;2022-08-05T13:18:06;7.20;;;6.70;;
73168;SDS011;61379;59.732;30.468;2022-08-05T13:20:34;6.82;;;6.32;;
73168;SDS011;61379;59.732;30.468;2022-08-05T13:23:01;7.63;;;7.13;;
73168;SDS011;61379;59.732;30.468;2022-08-05T13:25:28;8.23;;;7.63;;
73168;SDS011;61379;59.732;30.468;2022-08-05T13:27:56;7.15;;;6.65;;
73168;SDS011;61379;59.732;30.468;2022-08-05T13:30:23;7.43;;;6.93;;
73168;SDS011;61379;59.732;30.468;2022-08-05T13:32:51;8.90;;;7.95;;
73168;SDS011;61379;59.732;30.468;2022-08-05T13:35:18;6.63;;;6.13;;
73168;SDS011;61379;59.732;30.468;2022-08-05T13:37:46;7.35;;;6.85;;
73168;SDS011;61379;59.732;30.468;2022-08-05T13:40:13;7.00;;;6.50;;
73168;SDS011;61379;59.732;30.468;2022-08-05T13:42:41;7.40;;;6.80;;
73168;SDS011;61379;59.732;30.468;2022-08-05T13:45:10;7.80;;;7.15;;
73168;SDS011;61379;59.732;30.468;2022-08-05T13:47:37;7.25;;;6.65;;
73168;SDS011;61379;59.732;30.468;2022-08-05T13:50:05;8.07;;;7.40;;
73168;SDS011;61379;59.732;30.468;2022-08-05T13:52:32;8.77;;;8.27;;
73168;SDS011;61379;59.732;30.468;2022-08-05T13:54:59;7.57;;;6.97;;
73168;SDS011;61379;59.732;30.468;2022-08-05T13:57:26;7.95;;;7.32;;
73168;SDS011;61379;59.732;30.468;2022-08-05T13:59:53;8.07;;;7.47;;
73168;SDS011;61379;59.732;30.468;2022-08-05T14:02:22;7.63;;;7.03;;
73168;SDS011;61379;59.732;30.468;2022-08-05T14:04:49;6.72;;;6.30;;
73168;SDS011;61379;59.732;30.468;2022-08-05T14:07:33;7.07;;;6.57;;
73168;SDS011;61379;59.732;30.468;2022-08-05T14:10:03;7.45;;;6.85;;
73168;SDS011;61379;59.732;30.468;2022-08-05T14:12:30;7.93;;;7.43;;
73168;SDS011;61379;59.732;30.468;2022-08-05T14:14:57;7.47;;;6.97;;
73168;SDS011;61379;59.732;30.468;2022-08-05T14:17:26;7.35;;;6.85;;
73168;SDS011;61379;59.732;30.468;2022-08-05T14:19:53;7.30;;;6.80;;
73168;SDS011;61379;59.732;30.468;2022-08-05T14:22:20;7.47;;;6.78;;
73168;SDS011;61379;59.732;30.468;2022-08-05T14:24:47;6.80;;;6.20;;
73168;SDS011;61379;59.732;30.468;2022-08-05T14:27:14;6.65;;;6.15;;
73168;SDS011;61379;59.732;30.468;2022-08-05T14:29:41;8.52;;;7.93;;
73168;SDS011;61379;59.732;30.468;2022-08-05T14:32:08;6.60;;;6.10;;
73168;SDS011;61379;59.732;30.468;2022-08-05T14:34:37;6.82;;;6.32;;
73168;SDS011;61379;59.732;30.468;2022-08-05T14:39:30;6.90;;;6.40;;
73168;SDS011;61379;59.732;30.468;2022-08-05T14:41:57;6.97;;;6.28;;
73168;SDS011;61379;59.732;30.468;2022-08-05T14:44:24;7.70;;;7.10;;
73168;SDS011;61379;59.732;30.468;2022-08-05T14:46:51;7.72;;;7.13;;
73168;SDS011;61379;59.732;30.468;2022-08-05T14:49:18;7.90;;;7.20;;
73168;SDS011;61379;59.732;30.468;2022-08-05T14:51:47;8.95;;;8.35;;
73168;SDS011;61379;59.732;30.468;2022-08-05T14:54:15;8.05;;;7.55;;
73168;SDS011;61379;59.732;30.468;2022-08-05T14:56:42;8.43;;;7.72;;
73168;SDS011;61379;59.732;30.468;2022-08-05T14:59:09;8.30;;;7.80;;